Time;durP1;ratioP1;P1;durP2;ratioP2;P2;SDS_P1;SDS_P2;PMS_P1;PMS_P2;Temp;Humidity;BMP_temperature;BMP_pressure;BME280_temperature;BME280_humidity;BME280_pressure;Samples;Min_cycle;Max_cycle;Signal;HPM_P1;HPM_P2
2023/01/23 00:04:36;;;;;;;11.32;9.60;;;;;;;-0.62;100.00;99958.41;15301174;19;20031;-82
2023/01/23 00:10:01;;;;;;;12.65;10.93;;;;;;;-0.62;100.00;99963.69;15313557;19;20014;-83
2023/01/23 00:15:28;;;;;;;14.20;11.13;;;;;;;-0.63;100.00;99951.38;15308718;19;20010;-82
2023/01/23 00:20:57;;;;;;;15.82;12.93;;;;;;;-0.62;100.00;99950.47;15305725;19;20018;-83
2023/01/23 00:26:24;;;;;;;17.25;12.45;;;;;;;-0.62;100.00;99955.75;15291913;19;20062;-81
2023/01/23 00:31:49;;;;;;;16.10;13.05;;;;;;;-0.59;100.00;99962.75;15298911;19;20019;-80
2023/01/23 00:37:32;;;;;;;16.70;12.52;;;;;;;-0.60;100.00;99965.44;15305310;19;20015;-80
2023/01/23 00:42:56;;;;;;;21.83;13.27;;;;;;;-0.63;100.00;99964.63;15350252;19;20051;-80
2023/01/23 00:48:20;;;;;;;21.52;13.93;;;;;;;-0.64;100.00;99984.06;15291429;19;20033;-80
2023/01/23 00:53:48;;;;;;;21.23;14.13;;;;;;;-0.63;100.00;99984.94;15296001;19;20014;-81
2023/01/23 00:59:14;;;;;;;31.35;16.10;;;;;;;-0.64;100.00;99997.28;15288122;19;20010;-81
2023/01/23 01:04:39;;;;;;;29.52;16.63;;;;;;;-0.64;100.00;99999.94;15288650;19;20031;-81
2023/01/23 01:10:07;;;;;;;35.17;16.73;;;;;;;-0.66;100.00;100004.44;15289685;19;20014;-81
2023/01/23 01:15:32;;;;;;;41.55;16.90;;;;;;;-0.65;100.00;100016.75;15286990;19;20398;-81
2023/01/23 01:20:57;;;;;;;34.35;16.88;;;;;;;-0.64;100.00;100023.75;15295765;19;20022;-82
2023/01/23 01:26:25;;;;;;;60.63;17.88;;;;;;;-0.64;100.00;100034.34;15302414;19;20014;-80
2023/01/23 01:31:49;;;;;;;55.33;19.25;;;;;;;-0.64;100.00;100042.31;15301695;19;20034;-82
2023/01/23 01:37:14;;;;;;;88.95;20.38;;;;;;;-0.65;100.00;100043.22;15295853;19;20018;-83
2023/01/23 01:42:46;;;;;;;71.70;19.75;;;;;;;-0.64;100.00;100054.69;15296351;19;20081;-82
2023/01/23 01:48:11;;;;;;;96.82;22.45;;;;;;;-0.64;100.00;100046.75;15292559;19;20006;-82
2023/01/23 01:53:38;;;;;;;131.38;23.40;;;;;;;-0.64;100.00;100055.53;15290708;19;20019;-81
2023/01/23 01:59:08;;;;;;;86.45;24.73;;;;;;;-0.65;100.00;100067.03;15282341;19;20015;-81
2023/01/23 02:04:33;;;;;;;113.18;24.90;;;;;;;-0.64;100.00;100071.41;15271456;19;20078;-79
2023/01/23 02:09:59;;;;;;;116.28;22.67;;;;;;;-0.64;100.00;100067.91;15278991;19;20027;-81
2023/01/23 02:15:30;;;;;;;135.60;24.23;;;;;;;-0.64;100.00;100074.06;15285370;19;20559;-82
2023/01/23 02:20:58;;;;;;;108.93;24.00;;;;;;;-0.63;100.00;100073.16;15289394;19;20011;-83
2023/01/23 02:26:31;;;;;;;164.07;23.98;;;;;;;-0.64;100.00;100071.41;15277157;19;20038;-80
2023/01/23 02:31:56;;;;;;;129.88;26.00;;;;;;;-0.64;100.00;100066.13;15279417;19;20251;-81
2023/01/23 02:37:22;;;;;;;164.30;25.70;;;;;;;-0.66;100.00;100075.91;15277731;19;20406;-80
2023/01/23 02:42:57;;;;;;;142.00;25.83;;;;;;;-0.66;100.00;100085.63;15282575;19;20020;-81
2023/01/23 02:48:32;;;;;;;103.55;25.70;;;;;;;-0.65;100.00;100080.28;15282625;19;20255;-79
2023/01/23 02:53:58;;;;;;;164.45;25.95;;;;;;;-0.65;100.00;100093.50;15301801;19;20023;-81
2023/01/23 03:05:04;;;;;;;122.05;25.80;;;;;;;-0.64;100.00;100097.03;15289133;19;20014;-80
2023/01/23 03:10:29;;;;;;;158.93;25.20;;;;;;;-0.66;100.00;100102.38;15295001;19;20031;-80
2023/01/23 03:15:58;;;;;;;132.07;22.80;;;;;;;-0.64;100.00;100095.25;15299162;19;20031;-81
2023/01/23 03:21:22;;;;;;;132.07;24.38;;;;;;;-0.66;100.00;100102.38;15300171;19;20018;-81
2023/01/23 03:26:49;;;;;;;134.93;24.95;;;;;;;-0.66;100.00;100098.84;15300140;19;20416;-79
2023/01/23 03:32:24;;;;;;;131.43;24.42;;;;;;;-0.64;100.00;100120.84;15291525;19;20035;-79
2023/01/23 03:37:51;;;;;;;143.75;25.15;;;;;;;-0.65;100.00;100117.31;15282593;19;20285;-78
2023/01/23 03:43:17;;;;;;;115.60;24.95;;;;;;;-0.65;100.00;100125.28;15280602;19;20019;-74
2023/01/23 03:48:51;;;;;;;161.48;25.98;;;;;;;-0.63;100.00;100119.94;15287509;19;20014;-81
2023/01/23 03:54:16;;;;;;;125.20;23.95;;;;;;;-0.64;100.00;100113.78;15293614;19;20350;-80
2023/01/23 03:59:41;;;;;;;96.65;24.17;;;;;;;-0.64;100.00;100112.91;15278846;19;20029;-76
2023/01/23 04:05:12;;;;;;;106.07;24.88;;;;;;;-0.64;100.00;100121.72;15286787;19;20014;-77
2023/01/23 04:10:40;;;;;;;66.00;23.52;;;;;;;-0.63;100.00;100115.50;15292403;19;20035;-77
2023/01/23 04:16:07;;;;;;;94.75;23.73;;;;;;;-0.63;100.00;100123.44;15284810;19;20021;-77
2023/01/23 04:21:34;;;;;;;117.72;24.73;;;;;;;-0.62;100.00;100117.25;15289387;19;20748;-77
2023/01/23 04:26:59;;;;;;;252.52;24.92;;;;;;;-0.64;100.00;100121.72;15285384;19;20018;-77
2023/01/23 04:32:24;;;;;;;183.20;23.88;;;;;;;-0.61;100.00;100126.06;15342190;19;20013;-77
2023/01/23 04:37:51;;;;;;;174.75;24.20;;;;;;;-0.62;100.00;100122.53;15293532;19;20014;-77
2023/01/23 04:43:19;;;;;;;230.60;23.42;;;;;;;-0.63;100.00;100131.38;15287020;19;20018;-78
2023/01/23 04:48:43;;;;;;;245.35;25.42;;;;;;;-0.63;100.00;100139.34;15284822;19;20631;-77
2023/01/23 04:54:13;;;;;;;261.70;24.92;;;;;;;-0.63;100.00;100141.97;15285820;19;20014;-78
2023/01/23 04:59:37;;;;;;;225.80;25.52;;;;;;;-0.66;100.00;100147.41;15284661;19;20031;-78
2023/01/23 05:05:04;;;;;;;137.35;25.33;;;;;;;-0.67;100.00;100150.94;15285715;19;20015;-80
2023/01/23 05:10:31;;;;;;;233.10;27.20;;;;;;;-0.66;100.00;100170.34;15281394;19;20065;-77
2023/01/23 05:16:00;;;;;;;;;;;;;;;-0.66;100.00;100167.69;15281743;19;20015;-77
2023/01/23 05:21:47;;;;;;;232.55;25.75;;;;;;;-0.66;100.00;100173.88;15292005;19;19918;-78
2023/01/23 05:27:15;;;;;;;215.07;26.83;;;;;;;-0.66;100.00;100178.28;15283713;19;20020;-78
2023/01/23 05:32:39;;;;;;;193.77;25.52;;;;;;;-0.66;100.00;100184.44;15292740;19;20019;-78
2023/01/23 05:38:06;;;;;;;141.20;23.90;;;;;;;-0.68;100.00;100175.69;15275293;19;20110;-77
2023/01/23 05:43:33;;;;;;;63.80;22.25;;;;;;;-0.69;100.00;100173.94;15274956;19;20623;-78
2023/01/23 05:49:14;;;;;;;57.35;21.35;;;;;;;-0.69;100.00;100173.94;15269838;19;20015;-77
2023/01/23 05:54:39;;;;;;;60.13;22.30;;;;;;;-0.67;100.00;100198.59;15284182;19;20021;-79
2023/01/23 06:00:08;;;;;;;66.75;24.10;;;;;;;-0.66;100.00;100195.03;15280931;19;20015;-78
2023/01/23 06:05:52;;;;;;;51.35;21.58;;;;;;;-0.66;100.00;100195.03;15279014;19;20018;-79
2023/01/23 06:11:17;;;;;;;81.85;23.92;;;;;;;-0.68;100.00;100194.22;15280684;19;20018;-78
2023/01/23 06:16:44;;;;;;;59.33;22.98;;;;;;;-0.67;100.00;100203.91;15275624;19;20018;-78
2023/01/23 06:22:10;;;;;;;102.20;23.60;;;;;;;-0.68;100.00;100215.41;15283048;19;20503;-78
2023/01/23 06:27:44;;;;;;;195.43;23.95;;;;;;;-0.66;100.00;100215.34;15281231;19;20014;-78
2023/01/23 06:33:24;;;;;;;259.25;24.20;;;;;;;-0.65;100.00;100227.66;15280594;19;20023;-79
2023/01/23 06:38:52;;;;;;;399.30;25.20;;;;;;;-0.65;100.00;100241.75;15274747;19;20014;-79
2023/01/23 06:44:23;;;;;;;398.85;26.92;;;;;;;-0.65;100.00;100246.19;15282076;19;20019;-79
2023/01/23 06:49:51;;;;;;;348.48;26.52;;;;;;;-0.65;100.00;100262.94;15274597;19;20417;-78
2023/01/23 06:55:21;;;;;;;306.92;25.50;;;;;;;-0.63;100.00;100281.44;15275761;19;20041;-78
2023/01/23 07:00:47;;;;;;;291.20;25.17;;;;;;;-0.63;100.00;100287.59;15280025;19;20010;-77
2023/01/23 07:06:44;;;;;;;332.13;25.65;;;;;;;-0.63;100.00;100282.28;15281066;19;20046;-77
2023/01/23 07:12:08;;;;;;;305.70;25.05;;;;;;;-0.62;100.00;100286.69;15274706;19;20019;-77
2023/01/23 07:17:34;;;;;;;386.33;25.67;;;;;;;-0.61;100.00;100306.09;15273388;19;20018;-77
2023/01/23 07:23:01;;;;;;;428.45;26.67;;;;;;;-0.60;100.00;100309.59;15272156;19;20014;-77
2023/01/23 07:28:26;;;;;;;476.77;27.20;;;;;;;-0.59;100.00;100311.34;15275495;19;20015;-78
2023/01/23 07:33:50;;;;;;;452.33;26.77;;;;;;;-0.57;100.00;100320.97;15290223;19;20011;-77
2023/01/23 07:39:18;;;;;;;513.03;27.20;;;;;;;-0.56;100.00;100319.19;15286005;19;20022;-77
2023/01/23 07:44:42;;;;;;;395.23;25.35;;;;;;;-0.53;100.00;100321.75;15291736;19;20515;-77
2023/01/23 07:50:07;;;;;;;380.35;26.23;;;;;;;-0.51;100.00;100322.56;15285563;19;20026;-79
2023/01/23 07:55:34;;;;;;;377.55;26.40;;;;;;;-0.48;100.00;100331.31;15289314;19;20011;-79
2023/01/23 08:01:00;;;;;;;291.65;25.55;;;;;;;-0.47;100.00;100333.03;15289376;19;20022;-78
2023/01/23 08:06:24;;;;;;;352.38;27.67;;;;;;;-0.44;100.00;100337.38;15293293;19;20089;-78
2023/01/23 08:11:52;;;;;;;390.48;26.83;;;;;;;-0.40;100.00;100341.66;15271334;19;20031;-77
2023/01/23 08:17:16;;;;;;;329.33;24.38;;;;;;;-0.38;100.00;100346.94;15293766;19;20033;-78
2023/01/23 08:22:41;;;;;;;191.20;23.77;;;;;;;-0.37;100.00;100349.53;15348795;19;20936;-79
2023/01/23 08:28:08;;;;;;;168.70;23.02;;;;;;;-0.34;100.00;100352.09;15295110;19;20031;-79
2023/01/23 08:33:33;;;;;;;164.02;21.75;;;;;;;-0.32;100.00;100354.69;15292814;19;20361;-77
2023/01/23 08:38:57;;;;;;;164.27;21.52;;;;;;;-0.29;100.00;100354.59;15291681;19;20043;-78
2023/01/23 08:44:25;;;;;;;202.75;21.58;;;;;;;-0.26;100.00;100361.59;15289197;19;20480;-78
2023/01/23 08:49:56;;;;;;;126.38;19.92;;;;;;;-0.25;100.00;100361.56;15286442;19;20477;-77
2023/01/23 08:55:21;;;;;;;112.95;18.25;;;;;;;-0.22;100.00;100365.88;15303167;19;20291;-78
2023/01/23 09:00:49;;;;;;;101.93;18.77;;;;;;;-0.20;100.00;100372.88;15292823;19;20019;-79
2023/01/23 09:06:15;;;;;;;95.80;18.00;;;;;;;-0.17;100.00;100370.16;15282337;19;20023;-77
2023/01/23 09:11:40;;;;;;;144.48;18.80;;;;;;;-0.15;100.00;100370.09;15284140;19;20015;-77
2023/01/23 09:17:09;;;;;;;117.63;18.83;;;;;;;-0.13;100.00;100375.38;15282371;19;20017;-78
2023/01/23 09:22:33;;;;;;;153.02;19.05;;;;;;;-0.14;100.00;100374.47;15294930;19;20014;-78
2023/01/23 09:27:58;;;;;;;182.32;18.90;;;;;;;-0.12;100.00;100379.75;15284516;19;20011;-77
2023/01/23 09:33:27;;;;;;;158.13;19.63;;;;;;;-0.10;100.00;100378.78;15295502;19;20018;-78
2023/01/23 09:38:52;;;;;;;173.75;19.50;;;;;;;-0.08;100.00;100376.97;15282761;19;20112;-79
2023/01/23 09:44:26;;;;;;;113.03;20.02;;;;;;;-0.06;100.00;100384.84;15284343;19;20480;-78
2023/01/23 09:49:59;;;;;;;95.53;18.63;;;;;;;-0.06;100.00;100375.09;15285823;19;20014;-79
2023/01/23 09:55:30;;;;;;;119.05;18.48;;;;;;;-0.01;100.00;100375.00;15283694;19;20018;-77
2023/01/23 10:00:55;;;;;;;84.30;18.75;;;;;;;0.01;100.00;100381.09;15289210;19;20453;-78
2023/01/23 10:06:29;;;;;;;62.45;17.00;;;;;;;0.03;100.00;100379.28;15284138;19;20018;-77
2023/01/23 10:12:03;;;;;;;36.08;17.13;;;;;;;0.07;100.00;100374.75;15284190;19;20023;-79
2023/01/23 10:17:38;;;;;;;31.50;15.98;;;;;;;0.09;100.00;100357.03;15282784;19;20025;-77
2023/01/23 10:23:13;;;;;;;29.73;14.90;;;;;;;0.11;100.00;100353.44;15292673;19;20335;-79
2023/01/23 10:28:42;;;;;;;25.13;14.60;;;;;;;0.18;100.00;100364.69;15281818;19;20060;-80
2023/01/23 10:34:17;;;;;;;51.58;16.77;;;;;;;0.21;100.00;100361.94;15287231;19;20017;-79
2023/01/23 10:39:56;;;;;;;29.92;14.90;;;;;;;0.21;100.00;100358.44;15283703;19;20015;-77
2023/01/23 10:45:24;;;;;;;34.58;15.80;;;;;;;0.21;100.00;100346.03;15285976;19;20042;-79
2023/01/23 10:50:48;;;;;;;53.10;14.90;;;;;;;0.20;100.00;100349.59;15288355;19;20018;-79
2023/01/23 10:56:19;;;;;;;35.45;14.93;;;;;;;0.23;100.00;100352.16;15283932;19;20018;-77
2023/01/23 11:01:45;;;;;;;42.20;15.07;;;;;;;0.24;100.00;100348.59;15290025;19;20022;-79
2023/01/23 11:07:17;;;;;;;33.92;15.45;;;;;;;0.22;100.00;100334.53;15284779;19;20058;-78
2023/01/23 11:12:57;;;;;;;25.98;15.07;;;;;;;0.23;100.00;100336.25;15306790;19;20014;-80
2023/01/23 11:18:32;;;;;;;25.60;15.50;;;;;;;0.26;100.00;100343.25;15302191;19;20027;-79
2023/01/23 11:23:57;;;;;;;25.52;14.95;;;;;;;0.30;100.00;100343.09;15305647;19;20038;-77
2023/01/23 11:29:29;;;;;;;18.70;12.60;;;;;;;0.36;100.00;100338.53;15297461;19;20807;-79
2023/01/23 11:34:59;;;;;;;19.60;13.77;;;;;;;0.44;100.00;100320.56;15291102;19;20014;-78
2023/01/23 11:40:26;;;;;;;24.05;14.45;;;;;;;0.43;100.00;100318.84;15296000;19;20007;-80
2023/01/23 11:46:06;;;;;;;28.55;15.18;;;;;;;0.50;100.00;100317.72;15294481;19;20031;-79
2023/01/23 11:51:38;;;;;;;29.05;14.75;;;;;;;0.50;100.00;100301.81;15294564;19;20065;-78
2023/01/23 11:57:11;;;;;;;27.60;14.75;;;;;;;0.47;100.00;100293.09;15293024;19;20099;-78
2023/01/23 12:03:07;;;;;;;26.75;15.32;;;;;;;0.43;100.00;100287.00;15298140;19;20017;-80
2023/01/23 12:08:43;;;;;;;45.50;15.68;;;;;;;0.42;100.00;100285.28;15300589;19;20473;-80
2023/01/23 12:14:17;;;;;;;36.13;15.52;;;;;;;0.43;100.00;100281.72;15312978;19;20065;-77
2023/01/23 12:20:00;;;;;;;96.25;17.10;;;;;;;0.32;100.00;100276.78;15326875;19;20018;-79
2023/01/23 12:25:33;;;;;;;127.88;18.15;;;;;;;0.35;100.00;100281.09;15296065;19;20017;-78
2023/01/23 12:31:17;;;;;;;192.75;19.67;;;;;;;0.35;100.00;100278.44;15295873;19;20014;-78
2023/01/23 12:37:05;;;;;;;40.70;19.60;;;;;;;0.38;100.00;100278.34;15297411;19;20078;-81
2023/01/23 12:42:53;;;;;;;167.60;22.33;;;;;;;0.32;100.00;100278.53;15269880;19;20018;-78
2023/01/23 12:48:27;;;;;;;203.65;21.10;;;;;;;0.31;100.00;100288.28;15290788;19;20947;-81
2023/01/23 12:54:05;;;;;;;276.23;22.02;;;;;;;0.25;100.00;100299.09;15293100;19;20018;-81
2023/01/23 12:59:43;;;;;;;160.45;20.95;;;;;;;0.23;100.00;100291.19;15286624;19;20018;-81
2023/01/23 13:05:24;;;;;;;256.13;22.15;;;;;;;0.21;100.00;100277.13;15291687;19;20018;-78
2023/01/23 13:16:55;;;;;;;138.32;22.75;;;;;;;0.21;100.00;100295.66;15288904;19;20015;-80
2023/01/23 13:22:35;;;;;;;129.30;23.00;;;;;;;0.21;100.00;100303.63;15293363;19;20034;-79
2023/01/23 13:28:41;;;;;;;321.00;23.70;;;;;;;0.17;100.00;100303.78;15293000;19;20014;-79
2023/01/23 13:34:40;;;;;;;322.38;24.80;;;;;;;0.17;100.00;100309.06;15289088;19;20082;-79
2023/01/23 13:40:11;;;;;;;267.73;25.92;;;;;;;0.17;100.00;100309.97;15285967;19;20021;-79
2023/01/23 13:45:52;;;;;;;292.80;27.60;;;;;;;0.16;100.00;100305.56;15287293;19;20318;-80
2023/01/23 13:51:27;;;;;;;341.92;28.75;;;;;;;0.13;100.00;100314.47;15291530;19;20022;-80
2023/01/23 13:57:08;;;;;;;273.48;29.67;;;;;;;0.14;100.00;100323.31;15277652;19;20560;-79
2023/01/23 14:08:50;;;;;;;260.43;29.67;;;;;;;0.17;100.00;100317.03;15277726;19;20151;-79
2023/01/23 14:20:24;;;;;;;;;;;;;;;0.08;100.00;100316.41;15268610;19;20094;-81
2023/01/23 14:25:50;;;;;;;99.07;27.88;;;;;;;0.09;100.00;100314.59;15265297;19;19919;-79
2023/01/23 14:31:23;;;;;;;92.80;28.90;;;;;;;0.11;100.00;100318.09;15270462;19;20166;-80
2023/01/23 14:36:54;;;;;;;97.00;29.33;;;;;;;0.08;100.00;100319.06;15269151;19;20051;-79
2023/01/23 14:42:26;;;;;;;158.40;31.27;;;;;;;0.06;100.00;100317.38;15270835;19;20036;-81
2023/01/23 14:47:54;;;;;;;79.63;29.77;;;;;;;0.05;100.00;100323.59;15286888;19;20019;-81
2023/01/23 14:53:35;;;;;;;54.85;28.48;;;;;;;0.01;100.00;100327.25;15299533;19;20027;-80
2023/01/23 14:59:02;;;;;;;58.63;27.80;;;;;;;0.03;100.00;100331.56;15289880;19;20007;-79
2023/01/23 15:04:32;;;;;;;75.88;30.50;;;;;;;0.03;100.00;100328.06;15298095;19;20022;-80
2023/01/23 15:10:00;;;;;;;241.20;34.15;;;;;;;0.02;100.00;100339.56;15289738;19;20014;-79
2023/01/23 15:15:28;;;;;;;205.57;32.70;;;;;;;-0.01;100.00;100346.69;15296887;19;20010;-77
2023/01/23 15:20:57;;;;;;;179.45;34.13;;;;;;;-0.03;100.00;100347.66;15297024;19;20014;-77
2023/01/23 15:26:41;;;;;;;88.93;28.85;;;;;;;-0.03;100.00;100345.88;15298726;19;20134;-80
2023/01/23 15:32:18;;;;;;;75.60;30.23;;;;;;;-0.03;100.00;100348.53;15332685;19;20658;-81
2023/01/23 15:37:43;;;;;;;172.68;32.65;;;;;;;-0.06;100.00;100353.91;15335368;19;20022;-81
2023/01/23 15:43:14;;;;;;;147.35;34.25;;;;;;;-0.04;100.00;100353.88;15335417;19;20015;-81
2023/01/23 15:48:39;;;;;;;162.45;35.20;;;;;;;-0.03;100.00;100356.47;15314511;19;20014;-83
2023/01/23 15:54:11;;;;;;;114.85;32.55;;;;;;;-0.06;100.00;100348.59;15323181;19;20014;-80
2023/01/23 16:00:00;;;;;;;159.98;34.05;;;;;;;-0.09;100.00;100361.97;15276792;19;20495;-54
2023/01/23 16:05:27;;;;;;;146.05;33.80;;;;;;;-0.09;100.00;100359.31;15274546;19;20157;-56
2023/01/23 16:10:52;;;;;;;103.97;32.53;;;;;;;-0.11;100.00;100374.41;15275980;19;20082;-54
2023/01/23 16:16:20;;;;;;;88.25;30.88;;;;;;;-0.09;100.00;100377.88;15279493;19;20028;-57
2023/01/23 16:21:46;;;;;;;83.90;31.75;;;;;;;-0.09;100.00;100385.81;15265193;19;20032;-53
2023/01/23 16:27:26;;;;;;;131.13;33.80;;;;;;;-0.09;100.00;100388.47;15275548;19;20832;-54
2023/01/23 16:32:53;;;;;;;160.43;34.75;;;;;;;-0.08;100.00;100397.28;15272210;19;20021;-58
2023/01/23 16:38:24;;;;;;;134.77;35.03;;;;;;;-0.08;100.00;100399.94;15274993;19;20370;-56
2023/01/23 16:43:49;;;;;;;98.22;32.10;;;;;;;-0.10;100.00;100405.28;15275618;19;20021;-58
2023/01/23 16:49:16;;;;;;;92.70;31.95;;;;;;;-0.09;100.00;100416.72;15270973;19;20018;-57
2023/01/23 16:54:42;;;;;;;94.68;33.42;;;;;;;-0.10;100.00;100418.53;15269861;19;20078;-56
2023/01/23 17:00:08;;;;;;;93.38;34.90;;;;;;;-0.09;100.00;100425.56;15273808;19;20090;-57
2023/01/23 17:05:42;;;;;;;146.30;34.60;;;;;;;-0.10;100.00;100423.81;15273353;19;20014;-55
2023/01/23 17:11:07;;;;;;;105.13;34.53;;;;;;;-0.08;100.00;100429.97;15271032;19;20721;-56
2023/01/23 17:16:32;;;;;;;87.35;34.22;;;;;;;-0.07;100.00;100430.81;15275819;19;20348;-58
2023/01/23 17:22:00;;;;;;;88.30;32.58;;;;;;;-0.09;100.00;100433.53;15268742;19;20588;-56
2023/01/23 17:27:19;;;;;;;100.25;34.03;;;;;;;-0.08;100.00;100431.72;15274137;19;20089;-56
2023/01/23 17:32:45;;;;;;;123.93;35.10;;;;;;;-0.07;100.00;100441.41;15273594;19;20483;-57
2023/01/23 17:38:19;;;;;;;174.02;36.85;;;;;;;-0.07;100.00;100439.66;15273949;19;20106;-55
2023/01/23 17:43:47;;;;;;;102.18;34.30;;;;;;;-0.08;100.00;100448.50;14758264;19;10000677;-54
2023/01/23 17:49:28;;;;;;;122.25;35.95;;;;;;;-0.06;100.00;100449.31;15268304;19;20021;-56
2023/01/23 17:54:56;;;;;;;182.32;36.50;;;;;;;-0.08;100.00;100448.50;15260709;19;20086;-58
2023/01/23 18:00:29;;;;;;;345.75;37.72;;;;;;;-0.07;100.00;100434.34;15267168;19;20026;-52
2023/01/23 18:05:54;;;;;;;263.85;37.92;;;;;;;-0.07;100.00;100446.72;15269369;19;20014;-56
2023/01/23 18:11:29;;;;;;;221.43;37.40;;;;;;;-0.09;100.00;100444.13;15268253;19;20017;-55
2023/01/23 18:16:54;;;;;;;130.88;37.38;;;;;;;-0.10;100.00;100441.50;15263457;19;20711;-57
2023/01/23 18:22:20;;;;;;;131.38;35.83;;;;;;;-0.09;100.00;100453.81;15269832;19;20066;-53
2023/01/23 18:27:49;;;;;;;153.07;34.58;;;;;;;-0.08;100.00;100450.28;15269511;19;20014;-57
2023/01/23 18:33:45;;;;;;;206.80;38.25;;;;;;;-0.09;100.00;100452.06;15268377;19;20485;-55
2023/01/23 18:39:33;;;;;;;288.33;38.75;;;;;;;-0.09;100.00;100460.00;15269144;19;20014;-51
2023/01/23 18:45:06;;;;;;;262.60;36.75;;;;;;;-0.10;100.00;100454.75;15262146;19;20478;-56
2023/01/23 18:50:36;;;;;;;265.30;36.42;;;;;;;-0.11;100.00;100451.22;15260942;19;20027;-51
2023/01/23 18:56:15;;;;;;;310.17;40.20;;;;;;;-0.09;100.00;100462.66;15267925;19;20524;-53
2023/01/23 19:01:52;;;;;;;332.85;38.95;;;;;;;-0.10;100.00;100468.88;15262478;19;20045;-56
2023/01/23 19:07:23;;;;;;;298.52;39.13;;;;;;;-0.10;100.00;100471.53;15263774;19;20407;-52
2023/01/23 19:12:59;;;;;;;434.52;40.90;;;;;;;-0.10;100.00;100470.63;15264651;19;20438;-55
2023/01/23 19:18:44;;;;;;;375.88;42.45;;;;;;;-0.10;100.00;100478.59;15260213;19;20238;-51
2023/01/23 19:24:11;;;;;;;390.23;37.80;;;;;;;-0.11;100.00;100483.03;15267185;19;20014;-51
2023/01/23 19:29:36;;;;;;;310.38;38.13;;;;;;;-0.11;100.00;100487.44;15260061;19;20530;-53
2023/01/23 19:35:03;;;;;;;354.80;40.92;;;;;;;-0.11;100.00;100490.97;15283000;19;20399;-57
2023/01/23 19:40:44;;;;;;;340.50;40.42;;;;;;;-0.13;100.00;100484.84;15272427;19;20014;-54
2023/01/23 19:46:11;;;;;;;463.27;40.88;;;;;;;-0.13;100.00;100479.56;15278340;19;20019;-53
2023/01/23 19:51:40;;;;;;;346.35;40.60;;;;;;;-0.12;100.00;100488.38;15274278;19;20021;-53
2023/01/23 19:57:06;;;;;;;385.35;42.03;;;;;;;-0.14;100.00;100483.09;15281082;19;20010;-56
2023/01/23 20:02:30;;;;;;;395.13;41.90;;;;;;;-0.15;100.00;100478.72;15276735;19;20410;-56
2023/01/23 20:07:57;;;;;;;299.42;40.30;;;;;;;-0.14;100.00;100476.94;15269905;19;20344;-53
2023/01/23 20:13:22;;;;;;;258.83;41.08;;;;;;;-0.14;100.00;100476.94;15278964;19;20041;-58
2023/01/23 20:18:48;;;;;;;129.45;35.45;;;;;;;-0.17;100.00;100478.78;15269711;19;20485;-56
2023/01/23 20:24:16;;;;;;;254.75;40.45;;;;;;;-0.16;100.00;100479.63;15274068;19;20042;-53
2023/01/23 20:29:42;;;;;;;273.38;41.40;;;;;;;-0.15;100.00;100481.38;15268497;19;20475;-56
2023/01/23 20:35:07;;;;;;;177.43;39.10;;;;;;;-0.15;100.00;100476.06;15276958;19;20011;-54
2023/01/23 20:40:34;;;;;;;155.68;39.78;;;;;;;-0.13;100.00;100482.19;15268837;19;20022;-51
2023/01/23 20:46:01;;;;;;;166.75;39.45;;;;;;;-0.11;100.00;100482.16;15276159;19;20014;-51
2023/01/23 20:51:26;;;;;;;172.75;39.17;;;;;;;-0.11;100.00;100483.03;15273275;19;20016;-52
2023/01/23 20:56:54;;;;;;;180.50;37.72;;;;;;;-0.11;100.00;100485.69;15273876;19;20701;-54
2023/01/23 21:02:28;;;;;;;130.93;36.00;;;;;;;-0.10;100.00;100489.19;15278329;19;20400;-56
2023/01/23 21:07:52;;;;;;;145.27;36.50;;;;;;;-0.10;100.00;100490.06;15277414;19;20078;-52
2023/01/23 21:13:19;;;;;;;128.75;35.78;;;;;;;-0.09;100.00;100497.13;15274482;19;20597;-50
2023/01/23 21:18:46;;;;;;;102.53;34.10;;;;;;;-0.09;100.00;100486.50;15268765;19;20049;-56
2023/01/23 21:24:11;;;;;;;101.45;35.10;;;;;;;-0.09;100.00;100481.22;15276055;19;20017;-50
2023/01/23 21:29:40;;;;;;;101.05;32.78;;;;;;;-0.06;100.00;100491.69;15271176;19;20082;-53
2023/01/23 21:35:05;;;;;;;86.47;32.33;;;;;;;-0.05;100.00;100501.41;15276973;19;20018;-53
2023/01/23 21:40:29;;;;;;;68.28;29.02;;;;;;;-0.02;100.00;100493.38;15265618;19;20018;-56
2023/01/23 21:45:57;;;;;;;57.38;25.58;;;;;;;0.02;100.00;100485.34;15272280;19;20010;-55
2023/01/23 21:51:24;;;;;;;57.78;26.17;;;;;;;-0.01;100.00;100499.56;15269662;19;20017;-50
2023/01/23 21:56:50;;;;;;;65.65;28.75;;;;;;;-0.01;100.00;100494.25;15272247;19;20029;-51
2023/01/23 22:02:17;;;;;;;65.30;28.83;;;;;;;-0.04;100.00;100496.97;15274648;19;20022;-53
2023/01/23 22:07:42;;;;;;;58.25;28.10;;;;;;;-0.05;100.00;100488.16;15273605;19;20489;-51
2023/01/23 22:13:07;;;;;;;64.53;29.33;;;;;;;-0.07;100.00;100483.81;15275875;19;20018;-50
2023/01/23 22:18:35;;;;;;;62.67;28.23;;;;;;;-0.05;100.00;100493.44;15265615;19;20019;-52
2023/01/23 22:24:00;;;;;;;64.55;27.00;;;;;;;-0.07;100.00;100474.09;15272937;19;20014;-52
2023/01/23 22:29:25;;;;;;;64.78;29.75;;;;;;;-0.08;100.00;100493.56;15262921;19;20022;-55
2023/01/23 22:34:52;;;;;;;66.70;28.60;;;;;;;-0.05;100.00;100495.25;15272835;19;20018;-52
2023/01/23 22:40:17;;;;;;;56.47;27.92;;;;;;;-0.07;100.00;100495.28;15265980;19;20017;-56
2023/01/23 22:45:41;;;;;;;64.60;28.85;;;;;;;-0.05;100.00;100484.63;15268436;19;20037;-52
2023/01/23 22:51:14;;;;;;;64.65;29.23;;;;;;;-0.06;100.00;100481.09;15266257;19;20086;-55
2023/01/23 22:56:40;;;;;;;58.30;26.27;;;;;;;-0.08;100.00;100475.00;15270297;19;20070;-54
2023/01/23 23:02:05;;;;;;;62.95;28.83;;;;;;;-0.07;100.00;100475.84;15254152;19;20011;-50
2023/01/23 23:07:32;;;;;;;64.53;27.63;;;;;;;-0.07;100.00;100482.03;15278396;19;20015;-51
2023/01/23 23:12:57;;;;;;;94.13;31.25;;;;;;;-0.08;100.00;100480.31;15277309;19;20015;-52
2023/01/23 23:18:21;;;;;;;68.03;29.90;;;;;;;-0.07;100.00;100476.75;15270835;19;20085;-49
2023/01/23 23:23:49;;;;;;;69.53;30.92;;;;;;;-0.09;100.00;100475.03;15280004;19;20014;-51
2023/01/23 23:29:14;;;;;;;60.67;28.77;;;;;;;-0.06;100.00;100470.50;15269555;19;20014;-56
2023/01/23 23:34:40;;;;;;;53.03;27.90;;;;;;;-0.06;100.00;100473.16;15276477;19;20360;-51
2023/01/23 23:40:07;;;;;;;63.58;29.75;;;;;;;-0.05;100.00;100474.03;15269469;19;20427;-50
2023/01/23 23:45:32;;;;;;;79.78;29.23;;;;;;;-0.03;100.00;100469.56;15276114;19;20049;-49
2023/01/23 23:50:57;;;;;;;58.50;29.02;;;;;;;-0.06;100.00;100472.31;15273087;19;20015;-51
2023/01/23 23:56:26;;;;;;;59.45;28.77;;;;;;;-0.08;100.00;100472.34;15277158;19;20082;-51
